createdAt,value
2023-04-20T00:01:24.824Z,1.95
2023-04-20T00:03:51.894Z,1.98
2023-04-20T00:06:18.820Z,1.77
2023-04-20T00:08:45.513Z,1.98
2023-04-20T00:11:12.178Z,1.70
2023-04-20T00:13:38.818Z,1.73
2023-04-20T00:16:06.065Z,2.00
2023-04-20T00:18:32.777Z,1.90
2023-04-20T00:20:59.686Z,1.83
2023-04-20T00:23:26.476Z,1.92
2023-04-20T00:25:54.477Z,1.70
2023-04-20T00:28:21.198Z,1.80
2023-04-20T00:30:48.240Z,1.85
2023-04-20T00:33:14.990Z,2.05
2023-04-20T00:35:41.636Z,1.92
2023-04-20T00:38:08.453Z,1.80
2023-04-20T00:40:35.592Z,2.08
2023-04-20T00:43:13.301Z,1.85
2023-04-20T00:45:40.029Z,1.83
2023-04-20T00:48:07.456Z,2.13
2023-04-20T00:50:35.311Z,1.98
2023-04-20T00:53:03.178Z,1.70
2023-04-20T00:55:30.785Z,1.70
2023-04-20T00:57:58.370Z,1.70
2023-04-20T01:00:26.095Z,1.95
2023-04-20T01:02:52.913Z,1.90
2023-04-20T01:05:20.509Z,1.90
2023-04-20T01:07:47.235Z,1.70
2023-04-20T01:10:13.989Z,1.70
2023-04-20T01:12:40.924Z,1.85
2023-04-20T01:15:08.160Z,1.58
2023-04-20T01:17:38.080Z,1.67
2023-04-20T01:20:07.943Z,1.70
2023-04-20T01:22:42.405Z,2.03
2023-04-20T01:25:09.372Z,1.85
2023-04-20T01:27:36.048Z,1.73
2023-04-20T01:30:02.747Z,2.00
2023-04-20T01:32:29.551Z,1.90
2023-04-20T01:34:56.260Z,1.95
2023-04-20T01:37:23.032Z,1.73
2023-04-20T01:39:50.009Z,1.98
2023-04-20T01:42:16.822Z,1.80
2023-04-20T01:44:43.442Z,1.88
2023-04-20T01:47:10.275Z,1.67
2023-04-20T01:49:36.973Z,1.70
2023-04-20T01:52:03.776Z,1.85
2023-04-20T01:54:30.781Z,1.90
2023-04-20T01:56:57.861Z,2.10
2023-04-20T01:59:24.588Z,1.92
2023-04-20T02:01:51.488Z,1.63
2023-04-20T02:04:18.247Z,1.67
2023-04-20T02:06:44.889Z,1.90
2023-04-20T02:09:11.643Z,2.03
2023-04-20T02:11:38.390Z,1.58
2023-04-20T02:14:05.129Z,2.03
2023-04-20T02:16:32.095Z,2.03
2023-04-20T02:18:58.795Z,1.90
2023-04-20T02:21:25.530Z,1.77
2023-04-20T02:23:52.232Z,2.33
2023-04-20T02:26:18.991Z,2.10
2023-04-20T02:28:45.751Z,2.10
2023-04-20T02:31:12.570Z,1.98
2023-04-20T02:33:39.258Z,1.95
2023-04-20T02:36:06.103Z,1.73
2023-04-20T02:38:33.018Z,2.00
2023-04-20T02:40:59.730Z,1.83
2023-04-20T02:43:26.428Z,1.80
2023-04-20T02:45:53.144Z,1.90
2023-04-20T02:48:19.833Z,1.60
2023-04-20T02:50:46.495Z,2.00
2023-04-20T02:53:13.302Z,2.58
2023-04-20T02:55:40.202Z,1.70
2023-04-20T02:58:07.122Z,1.48
2023-04-20T03:00:34.311Z,1.75
2023-04-20T03:03:01.063Z,1.80
2023-04-20T03:05:27.785Z,1.77
2023-04-20T03:07:54.479Z,1.70
2023-04-20T03:10:21.191Z,1.65
2023-04-20T03:12:47.880Z,1.70
2023-04-20T03:15:15.677Z,1.83
2023-04-20T03:17:42.427Z,1.50
2023-04-20T03:20:09.414Z,1.75
2023-04-20T03:22:36.145Z,1.70
2023-04-20T03:25:02.817Z,1.60
2023-04-20T03:27:29.493Z,1.65
2023-04-20T03:29:56.345Z,1.60
2023-04-20T03:32:23.102Z,1.60
2023-04-20T03:34:50.671Z,1.45
2023-04-20T03:37:17.400Z,1.75
2023-04-20T03:39:44.027Z,1.83
2023-04-20T03:42:10.713Z,1.70
2023-04-20T03:44:37.453Z,1.73
2023-04-20T03:47:04.218Z,1.88
2023-04-20T03:49:31.011Z,1.77
2023-04-20T03:51:57.740Z,1.60
2023-04-20T03:54:24.428Z,1.63
2023-04-20T03:56:51.086Z,1.88
2023-04-20T03:59:18.091Z,1.60
2023-04-20T04:01:44.920Z,1.73
2023-04-20T04:04:11.882Z,1.70
2023-04-20T04:06:38.975Z,1.60
2023-04-20T04:09:05.913Z,2.13
2023-04-20T04:11:32.652Z,1.52
2023-04-20T04:13:59.502Z,2.03
2023-04-20T04:16:26.355Z,2.00
2023-04-20T04:18:53.055Z,1.70
2023-04-20T04:21:19.754Z,1.30
2023-04-20T04:23:46.588Z,1.30
2023-04-20T04:26:13.333Z,1.60
2023-04-20T04:28:40.559Z,1.67
2023-04-20T04:31:08.382Z,1.70
2023-04-20T04:33:35.067Z,1.65
2023-04-20T04:36:02.626Z,1.50
2023-04-20T04:38:29.440Z,1.50
2023-04-20T04:40:56.415Z,1.63
2023-04-20T04:43:25.744Z,1.60
2023-04-20T04:45:53.495Z,1.77
2023-04-20T04:48:20.408Z,1.73
2023-04-20T04:50:47.434Z,1.80
2023-04-20T04:53:14.210Z,2.33
2023-04-20T04:55:41.269Z,1.85
2023-04-20T04:58:07.987Z,1.63
2023-04-20T05:00:34.892Z,1.70
2023-04-20T05:03:01.757Z,1.75
2023-04-20T05:05:28.544Z,1.60
2023-04-20T05:07:55.333Z,1.52
2023-04-20T05:10:22.147Z,1.60
2023-04-20T05:12:48.983Z,1.80
2023-04-20T05:15:15.689Z,1.70
2023-04-20T05:17:42.529Z,1.60
2023-04-20T05:20:11.428Z,2.10
2023-04-20T05:22:38.488Z,2.00
2023-04-20T05:25:06.663Z,1.73
2023-04-20T05:27:34.058Z,2.10
2023-04-20T05:30:16.706Z,1.90
2023-04-20T05:32:50.007Z,1.63
2023-04-20T05:35:18.175Z,1.80
2023-04-20T05:37:44.902Z,1.80
2023-04-20T05:40:11.891Z,1.67
2023-04-20T05:42:38.660Z,1.42
2023-04-20T05:45:06.373Z,1.90
2023-04-20T05:47:33.343Z,1.88
2023-04-20T05:50:00.223Z,1.52
2023-04-20T05:52:26.877Z,1.70
2023-04-20T05:54:53.680Z,1.80
2023-04-20T05:57:20.681Z,1.73
2023-04-20T05:59:47.384Z,1.80
2023-04-20T06:02:14.265Z,1.58
2023-04-20T06:04:42.618Z,1.38
2023-04-20T06:07:09.571Z,2.00
2023-04-20T06:09:36.334Z,1.92
2023-04-20T06:12:03.583Z,2.13
2023-04-20T06:14:30.333Z,1.70
2023-04-20T06:16:57.167Z,1.80
2023-04-20T06:19:23.956Z,1.40
2023-04-20T06:21:50.690Z,1.83
2023-04-20T06:24:17.488Z,1.88
2023-04-20T06:26:44.164Z,1.80
2023-04-20T06:29:10.825Z,1.63
2023-04-20T06:31:37.710Z,2.30
2023-04-20T06:34:04.482Z,1.90
2023-04-20T06:36:31.280Z,1.80
2023-04-20T06:38:58.135Z,1.77
2023-04-20T06:41:24.832Z,1.70
2023-04-20T06:43:51.645Z,2.20
2023-04-20T06:46:18.459Z,1.52
2023-04-20T06:48:45.413Z,1.80
2023-04-20T06:51:13.701Z,1.90
2023-04-20T06:53:40.374Z,1.67
2023-04-20T06:56:07.397Z,1.83
2023-04-20T06:58:34.215Z,1.83
2023-04-20T07:01:01.909Z,1.45
2023-04-20T07:03:29.033Z,1.63
2023-04-20T07:05:55.944Z,1.73
2023-04-20T07:08:22.785Z,1.90
2023-04-20T07:10:49.415Z,1.67
2023-04-20T07:13:16.346Z,1.85
2023-04-20T07:15:45.138Z,1.92
2023-04-20T07:18:12.355Z,2.03
2023-04-20T07:20:39.216Z,1.60
2023-04-20T07:23:06.465Z,2.08
2023-04-20T07:25:33.306Z,2.00
2023-04-20T07:28:00.188Z,1.80
2023-04-20T07:30:27.237Z,1.77
2023-04-20T07:32:54.058Z,2.05
2023-04-20T07:35:20.959Z,2.05
2023-04-20T07:37:47.688Z,1.90
2023-04-20T07:40:14.636Z,1.80
2023-04-20T07:42:41.405Z,1.70
2023-04-20T07:45:09.573Z,1.85
2023-04-20T07:47:37.236Z,1.77
2023-04-20T07:50:05.799Z,1.75
2023-04-20T07:52:32.660Z,2.08
2023-04-20T07:54:59.819Z,1.77
2023-04-20T07:57:27.159Z,1.88
2023-04-20T07:59:54.063Z,1.90
2023-04-20T08:02:21.056Z,1.83
2023-04-20T08:04:49.768Z,1.90
2023-04-20T08:07:16.755Z,2.05
2023-04-20T08:09:43.512Z,1.83
2023-04-20T08:12:10.190Z,2.03
2023-04-20T08:14:38.281Z,2.05
2023-04-20T08:17:05.017Z,1.73
2023-04-20T08:19:31.762Z,1.67
2023-04-20T08:21:59.813Z,1.90
2023-04-20T08:24:27.996Z,1.67
2023-04-20T08:26:54.929Z,1.90
2023-04-20T08:29:21.839Z,1.95
2023-04-20T08:31:49.982Z,2.03
2023-04-20T08:34:18.936Z,1.90
2023-04-20T08:36:46.465Z,2.05
2023-04-20T08:39:15.120Z,1.73
2023-04-20T08:41:41.884Z,1.77
2023-04-20T08:44:08.976Z,1.73
2023-04-20T08:46:36.353Z,2.10
2023-04-20T08:49:04.085Z,1.77
2023-04-20T08:51:32.752Z,1.83
2023-04-20T08:54:10.386Z,2.05
2023-04-20T08:56:42.658Z,2.10
2023-04-20T08:59:14.340Z,1.75
2023-04-20T09:04:17.257Z,1.88
2023-04-20T09:06:46.226Z,1.83
2023-04-20T09:09:12.994Z,1.85
2023-04-20T09:11:40.584Z,2.15
2023-04-20T09:14:12.781Z,1.95
2023-04-20T09:16:52.800Z,1.85
2023-04-20T09:19:24.721Z,2.00
2023-04-20T09:21:54.566Z,2.03
2023-04-20T09:24:23.508Z,1.77
2023-04-20T09:26:50.257Z,1.92
2023-04-20T09:29:21.535Z,2.22
2023-04-20T09:31:49.366Z,2.03
2023-04-20T09:34:16.914Z,1.80
2023-04-20T09:36:44.687Z,1.95
2023-04-20T09:39:13.304Z,1.75
2023-04-20T09:41:41.424Z,2.00
2023-04-20T09:44:09.630Z,1.90
2023-04-20T09:46:39.121Z,2.05
2023-04-20T09:49:07.660Z,1.92
2023-04-20T09:51:36.187Z,2.38
2023-04-20T09:54:05.143Z,1.98
2023-04-20T09:56:33.166Z,2.20
2023-04-20T09:59:00.988Z,1.80
2023-04-20T10:01:34.812Z,1.80
2023-04-20T10:04:09.758Z,1.80
2023-04-20T10:06:37.486Z,1.42
2023-04-20T10:09:06.632Z,1.75
2023-04-20T10:11:51.671Z,2.00
2023-04-20T10:14:24.962Z,2.22
2023-04-20T10:17:05.965Z,1.70
2023-04-20T10:19:46.002Z,1.98
2023-04-20T10:22:14.369Z,1.92
2023-04-20T10:24:41.255Z,2.05
2023-04-20T10:27:18.657Z,1.90
2023-04-20T10:29:45.990Z,1.90
2023-04-20T10:32:24.221Z,2.00
2023-04-20T10:35:06.512Z,1.83
2023-04-20T10:37:33.716Z,1.92
2023-04-20T10:40:01.046Z,1.98
2023-04-20T10:42:29.659Z,1.55
2023-04-20T10:44:56.588Z,2.00
2023-04-20T10:47:31.532Z,1.63
2023-04-20T10:50:10.930Z,1.95
2023-04-20T10:52:39.905Z,2.10
2023-04-20T10:55:08.326Z,2.00
2023-04-20T10:57:36.387Z,1.70
2023-04-20T11:00:17.726Z,1.80
2023-04-20T11:02:52.463Z,2.22
2023-04-20T11:05:20.471Z,1.60
2023-04-20T11:07:57.646Z,1.85
2023-04-20T11:10:37.230Z,2.00
2023-04-20T11:13:04.077Z,2.08
2023-04-20T11:15:34.424Z,1.80
2023-04-20T11:18:12.096Z,2.00
2023-04-20T11:20:51.161Z,1.88
2023-04-20T11:23:20.858Z,2.28
2023-04-20T11:25:55.756Z,1.88
2023-04-20T11:28:23.087Z,2.10
2023-04-20T11:30:50.949Z,2.13
2023-04-20T11:33:29.095Z,1.88
2023-04-20T11:35:57.744Z,2.30
2023-04-20T11:38:32.302Z,2.20
2023-04-20T11:41:04.593Z,2.13
2023-04-20T11:43:32.282Z,2.40
2023-04-20T11:46:00.008Z,2.03
2023-04-20T11:48:27.656Z,2.17
2023-04-20T11:50:54.385Z,2.42
2023-04-20T11:53:21.154Z,2.20
2023-04-20T11:55:48.133Z,2.47
2023-04-20T11:58:14.986Z,1.92
2023-04-20T12:00:41.902Z,1.75
2023-04-20T12:03:08.796Z,1.70
2023-04-20T12:05:35.805Z,1.90
2023-04-20T12:08:02.580Z,1.75
2023-04-20T12:10:29.522Z,1.70
2023-04-20T12:12:56.853Z,2.00
2023-04-20T12:15:24.494Z,1.70
2023-04-20T12:17:51.371Z,1.83
2023-04-20T12:20:18.105Z,1.65
2023-04-20T12:22:44.772Z,1.90
2023-04-20T12:25:11.532Z,1.80
2023-04-20T12:27:38.258Z,1.88
2023-04-20T12:30:05.624Z,2.05
2023-04-20T12:32:32.356Z,1.85
2023-04-20T12:34:59.298Z,1.83
2023-04-20T12:37:27.344Z,1.83
2023-04-20T12:39:54.163Z,1.45
2023-04-20T12:42:20.905Z,1.83
2023-04-20T12:44:47.582Z,1.80
2023-04-20T12:47:14.296Z,1.70
2023-04-20T12:49:41.002Z,1.55
2023-04-20T12:52:08.191Z,1.55
2023-04-20T12:54:35.059Z,1.52
2023-04-20T12:57:02.516Z,1.85
2023-04-20T12:59:29.321Z,1.42
2023-04-20T13:01:56.204Z,1.58
2023-04-20T13:04:23.660Z,2.00
2023-04-20T13:06:51.314Z,1.50
2023-04-20T13:09:17.998Z,1.75
2023-04-20T13:11:44.942Z,1.45
2023-04-20T13:14:11.874Z,1.60
2023-04-20T13:16:38.657Z,1.63
2023-04-20T13:19:05.340Z,1.55
2023-04-20T13:21:33.137Z,2.03
2023-04-20T13:24:00.008Z,1.60
2023-04-20T13:26:26.856Z,1.63
2023-04-20T13:28:54.168Z,1.90
2023-04-20T13:31:20.908Z,1.73
2023-04-20T13:33:47.630Z,1.70
2023-04-20T13:36:14.399Z,1.58
2023-04-20T13:38:41.107Z,1.55
2023-04-20T13:41:07.820Z,2.45
2023-04-20T13:43:34.578Z,1.40
2023-04-20T13:46:01.396Z,1.67
2023-04-20T13:48:28.090Z,1.50
2023-04-20T13:50:54.782Z,1.58
2023-04-20T13:53:21.923Z,1.70
2023-04-20T13:55:48.706Z,1.80
2023-04-20T13:58:15.481Z,1.88
2023-04-20T14:00:42.284Z,1.70
2023-04-20T14:03:10.533Z,1.73
2023-04-20T14:05:38.843Z,1.60
2023-04-20T14:08:06.899Z,2.00
2023-04-20T14:10:34.094Z,1.60
2023-04-20T14:13:01.706Z,1.65
2023-04-20T14:15:28.670Z,2.25
2023-04-20T14:17:55.448Z,1.60
2023-04-20T14:20:22.390Z,1.52
2023-04-20T14:22:49.130Z,1.90
2023-04-20T14:25:16.050Z,2.20
2023-04-20T14:27:42.811Z,2.03
2023-04-20T14:30:10.224Z,1.83
2023-04-20T14:32:37.024Z,1.80
2023-04-20T14:35:05.644Z,1.60
2023-04-20T14:37:33.104Z,2.05
2023-04-20T14:39:59.829Z,2.00
2023-04-20T14:42:26.471Z,1.80
2023-04-20T14:44:53.560Z,1.73
2023-04-20T14:47:20.754Z,1.65
2023-04-20T14:49:47.727Z,1.58
2023-04-20T14:52:14.480Z,1.70
2023-04-20T14:54:41.165Z,1.60
2023-04-20T14:57:08.004Z,1.50
2023-04-20T14:59:34.764Z,1.88
2023-04-20T15:02:03.438Z,1.63
2023-04-20T15:04:30.984Z,1.70
2023-04-20T15:06:58.344Z,1.65
2023-04-20T15:09:25.420Z,1.75
2023-04-20T15:11:52.103Z,1.80
2023-04-20T15:14:18.889Z,1.80
2023-04-20T15:16:45.800Z,1.70
2023-04-20T15:19:12.433Z,1.60
2023-04-20T15:21:39.129Z,2.05
2023-04-20T15:24:06.204Z,1.92
2023-04-20T15:26:33.162Z,1.65
2023-04-20T15:28:59.910Z,1.90
2023-04-20T15:31:27.582Z,1.70
2023-04-20T15:33:54.501Z,1.85
2023-04-20T15:36:21.279Z,2.00
2023-04-20T15:38:48.121Z,1.77
2023-04-20T15:41:16.271Z,1.92
2023-04-20T15:43:43.706Z,1.65
2023-04-20T15:46:10.563Z,1.92
2023-04-20T15:48:37.542Z,1.98
2023-04-20T15:51:04.627Z,2.00
2023-04-20T15:53:32.348Z,1.90
2023-04-20T15:55:59.052Z,2.10
2023-04-20T15:58:26.816Z,1.95
2023-04-20T16:00:53.574Z,1.95
2023-04-20T16:03:20.884Z,1.92
2023-04-20T16:05:48.232Z,2.00
2023-04-20T16:08:14.886Z,1.80
2023-04-20T16:10:41.529Z,1.88
2023-04-20T16:13:08.288Z,1.73
2023-04-20T16:15:35.129Z,2.03
2023-04-20T16:18:04.832Z,2.00
2023-04-20T16:20:31.631Z,2.40
2023-04-20T16:22:58.355Z,2.15
2023-04-20T16:25:25.675Z,2.83
2023-04-20T16:27:52.448Z,1.90
2023-04-20T16:30:19.358Z,2.42
2023-04-20T16:32:46.134Z,1.80
2023-04-20T16:35:14.400Z,1.88
2023-04-20T16:37:41.109Z,1.80
2023-04-20T16:40:09.851Z,1.83
2023-04-20T16:42:36.598Z,2.00
2023-04-20T16:45:04.571Z,1.90
2023-04-20T16:47:31.486Z,1.77
2023-04-20T16:49:58.235Z,1.77
2023-04-20T16:52:25.010Z,1.80
2023-04-20T16:54:51.760Z,2.20
2023-04-20T16:57:18.713Z,2.13
2023-04-20T16:59:45.947Z,2.45
2023-04-20T17:02:12.984Z,2.05
2023-04-20T17:04:39.946Z,2.10
2023-04-20T17:07:06.729Z,2.20
2023-04-20T17:09:33.533Z,2.22
2023-04-20T17:12:01.338Z,2.17
2023-04-20T17:14:28.112Z,2.08
2023-04-20T17:16:56.559Z,2.25
2023-04-20T17:19:23.519Z,2.20
2023-04-20T17:21:50.546Z,2.22
2023-04-20T17:24:17.655Z,2.30
2023-04-20T17:26:46.315Z,1.90
2023-04-20T17:29:13.646Z,2.20
2023-04-20T17:31:40.338Z,2.33
2023-04-20T17:34:07.327Z,2.10
2023-04-20T17:36:34.244Z,2.20
2023-04-20T17:39:01.151Z,2.17
2023-04-20T17:41:28.096Z,2.08
2023-04-20T17:43:54.859Z,2.35
2023-04-20T17:46:22.986Z,2.63
2023-04-20T17:48:49.825Z,2.70
2023-04-20T17:51:16.461Z,3.40
2023-04-20T17:53:43.144Z,4.88
2023-04-20T17:56:10.786Z,5.45
2023-04-20T17:58:37.548Z,8.45
2023-04-20T18:01:04.690Z,7.10
2023-04-20T18:03:31.640Z,10.90
2023-04-20T18:05:58.529Z,13.70
2023-04-20T18:08:25.804Z,9.20
2023-04-20T18:10:52.571Z,10.10
2023-04-20T18:13:19.372Z,8.95
2023-04-20T18:15:46.100Z,10.15
2023-04-20T18:18:12.887Z,9.07
2023-04-20T18:20:40.499Z,9.10
2023-04-20T18:23:07.504Z,9.25
2023-04-20T18:25:34.312Z,8.05
2023-04-20T18:28:01.253Z,10.63
2023-04-20T18:30:28.033Z,9.10
2023-04-20T18:32:54.799Z,9.23
2023-04-20T18:35:21.604Z,8.45
2023-04-20T18:37:48.269Z,8.32
2023-04-20T18:40:16.440Z,8.38
2023-04-20T18:42:43.522Z,8.45
2023-04-20T18:45:12.222Z,8.07
2023-04-20T18:47:39.204Z,8.45
2023-04-20T18:50:06.661Z,8.35
2023-04-20T18:52:33.977Z,8.55
2023-04-20T18:55:01.440Z,8.02
2023-04-20T18:57:29.025Z,7.65
2023-04-20T18:59:56.496Z,7.75
2023-04-20T19:02:23.838Z,7.47
2023-04-20T19:04:51.103Z,8.25
2023-04-20T19:07:18.337Z,7.47
2023-04-20T19:09:45.241Z,8.27
2023-04-20T19:12:12.133Z,7.05
2023-04-20T19:14:38.904Z,7.28
2023-04-20T19:17:07.319Z,7.25
2023-04-20T19:19:34.429Z,7.35
2023-04-20T19:22:03.524Z,7.22
2023-04-20T19:24:32.071Z,6.93
2023-04-20T19:26:59.314Z,6.95
2023-04-20T19:29:26.257Z,6.57
2023-04-20T19:31:53.220Z,6.20
2023-04-20T19:34:21.357Z,6.55
2023-04-20T19:36:48.290Z,7.40
2023-04-20T19:39:14.984Z,6.50
2023-04-20T19:41:41.777Z,7.13
2023-04-20T19:44:10.373Z,7.07
2023-04-20T19:46:38.577Z,7.10
2023-04-20T19:49:05.635Z,6.25
2023-04-20T19:51:32.870Z,6.05
2023-04-20T19:54:00.602Z,5.90
2023-04-20T19:56:27.348Z,5.78
2023-04-20T19:58:54.209Z,6.20
2023-04-20T20:01:21.175Z,6.10
2023-04-20T20:03:48.114Z,5.70
2023-04-20T20:06:15.016Z,4.85
2023-04-20T20:08:41.711Z,4.65
2023-04-20T20:11:08.506Z,4.85
2023-04-20T20:13:35.299Z,5.43
2023-04-20T20:16:02.837Z,4.35
2023-04-20T20:18:29.620Z,4.68
2023-04-20T20:20:56.293Z,4.80
2023-04-20T20:23:23.002Z,4.20
2023-04-20T20:25:49.720Z,4.72
2023-04-20T20:28:16.510Z,4.47
2023-04-20T20:30:45.166Z,4.38
2023-04-20T20:33:12.562Z,4.45
2023-04-20T20:35:39.938Z,3.80
2023-04-20T20:38:07.821Z,3.60
2023-04-20T20:40:35.626Z,4.70
2023-04-20T20:43:03.786Z,4.07
2023-04-20T20:45:31.805Z,4.00
2023-04-20T20:47:59.387Z,4.18
2023-04-20T20:50:27.827Z,4.38
2023-04-20T20:52:54.774Z,3.95
2023-04-20T20:55:21.698Z,3.08
2023-04-20T20:57:48.630Z,3.58
2023-04-20T21:00:16.094Z,3.70
2023-04-20T21:02:43.133Z,3.72
2023-04-20T21:05:10.307Z,3.35
2023-04-20T21:07:37.085Z,3.75
2023-04-20T21:10:04.194Z,3.50
2023-04-20T21:12:31.014Z,3.40
2023-04-20T21:14:57.833Z,3.17
2023-04-20T21:17:24.865Z,3.22
2023-04-20T21:19:51.568Z,3.28
2023-04-20T21:22:20.015Z,3.13
2023-04-20T21:24:46.821Z,3.38
2023-04-20T21:27:13.604Z,2.83
2023-04-20T21:29:40.624Z,2.90
2023-04-20T21:32:07.455Z,2.90
2023-04-20T21:34:34.211Z,2.90
2023-04-20T21:37:04.170Z,3.00
2023-04-20T21:39:32.205Z,2.88
2023-04-20T21:41:59.712Z,2.90
2023-04-20T21:44:26.693Z,3.20
2023-04-20T21:46:53.467Z,2.80
2023-04-20T21:49:20.838Z,3.15
2023-04-20T21:51:47.540Z,3.08
2023-04-20T21:54:14.286Z,2.90
2023-04-20T21:56:40.973Z,2.55
2023-04-20T21:59:07.663Z,2.75
2023-04-20T22:01:34.460Z,2.65
2023-04-20T22:04:01.735Z,3.10
2023-04-20T22:06:28.717Z,2.78
2023-04-20T22:08:56.446Z,3.10
2023-04-20T22:11:23.113Z,2.72
2023-04-20T22:13:50.233Z,2.47
2023-04-20T22:16:18.054Z,2.83
2023-04-20T22:18:44.769Z,2.63
2023-04-20T22:21:11.531Z,2.70
2023-04-20T22:23:38.325Z,2.67
2023-04-20T22:26:05.292Z,2.15
2023-04-20T22:28:32.025Z,2.60
2023-04-20T22:30:58.841Z,2.55
2023-04-20T22:33:25.546Z,2.40
2023-04-20T22:35:52.702Z,2.40
2023-04-20T22:38:19.541Z,3.42
2023-04-20T22:40:46.310Z,2.60
2023-04-20T22:43:13.098Z,2.63
2023-04-20T22:45:39.969Z,2.55
2023-04-20T22:48:06.747Z,2.70
2023-04-20T22:50:34.868Z,2.50
2023-04-20T22:53:01.683Z,2.50
2023-04-20T22:55:28.420Z,2.45
2023-04-20T22:57:55.104Z,2.78
2023-04-20T23:00:23.328Z,3.22
2023-04-20T23:02:51.463Z,2.58
2023-04-20T23:05:20.347Z,2.10
2023-04-20T23:07:47.405Z,2.58
2023-04-20T23:10:17.149Z,2.50
2023-04-20T23:12:44.649Z,2.90
2023-04-20T23:15:12.142Z,2.55
2023-04-20T23:17:39.113Z,2.67
2023-04-20T23:20:13.746Z,2.47
2023-04-20T23:22:40.783Z,2.63
2023-04-20T23:25:09.651Z,2.78
2023-04-20T23:27:36.810Z,2.20
2023-04-20T23:30:03.898Z,2.67
2023-04-20T23:32:30.658Z,2.45
2023-04-20T23:34:57.487Z,2.80
2023-04-20T23:37:24.283Z,2.45
2023-04-20T23:39:51.031Z,2.90
2023-04-20T23:42:17.687Z,2.40
2023-04-20T23:44:44.355Z,2.20
2023-04-20T23:47:11.077Z,2.40
2023-04-20T23:49:37.766Z,2.22
2023-04-20T23:52:04.590Z,2.22
2023-04-20T23:54:33.223Z,2.22
2023-04-20T23:57:00.176Z,2.70
2023-04-20T23:59:26.806Z,2.38
